Time;durP1;ratioP1;P1;durP2;ratioP2;P2;SDS_P1;SDS_P2;PMS_P1;PMS_P2;Temp;Humidity;BMP_temperature;BMP_pressure;BME280_temperature;BME280_humidity;BME280_pressure;Samples;Min_cycle;Max_cycle;Signal;HPM_P1;HPM_P2
2022/04/09 00:00:14;;;;;;;14.80;2.72;;;4.50;99.90;;;;;;5006885;28;20049;-74
2022/04/09 00:02:40;;;;;;;13.13;3.03;;;4.40;99.90;;;;;;4999192;28;20107;-74
2022/04/09 00:05:07;;;;;;;15.32;3.63;;;4.30;99.90;;;;;;5006652;28;20083;-74
2022/04/09 00:07:33;;;;;;;17.73;3.28;;;4.20;99.90;;;;;;5004267;28;20832;-74
2022/04/09 00:09:59;;;;;;;12.80;3.05;;;4.20;99.90;;;;;;5011538;28;20163;-74
2022/04/09 00:12:25;;;;;;;16.70;3.20;;;4.20;99.90;;;;;;5008358;28;20049;-74
2022/04/09 00:14:51;;;;;;;12.63;2.85;;;4.10;99.90;;;;;;5001809;28;20037;-74
2022/04/09 00:17:17;;;;;;;13.32;2.95;;;4.10;99.90;;;;;;5007651;28;20041;-74
2022/04/09 00:19:43;;;;;;;15.95;3.45;;;4.10;99.90;;;;;;4988147;28;20079;-74
2022/04/09 00:22:10;;;;;;;15.05;2.63;;;4.10;99.90;;;;;;5004507;28;20041;-74
2022/04/09 00:24:36;;;;;;;11.40;2.67;;;4.10;99.90;;;;;;4986624;28;20086;-74
2022/04/09 00:27:03;;;;;;;15.00;3.20;;;4.10;99.90;;;;;;4987292;28;20060;-74
2022/04/09 00:29:28;;;;;;;15.95;3.45;;;4.00;99.90;;;;;;4984017;28;20219;-74
2022/04/09 00:31:54;;;;;;;17.98;3.03;;;4.00;99.90;;;;;;4987943;28;20046;-74
2022/04/09 00:34:20;;;;;;;13.27;2.60;;;4.00;99.90;;;;;;5001189;28;20045;-74
2022/04/09 00:36:46;;;;;;;18.10;3.05;;;4.10;99.90;;;;;;4985223;28;20073;-74
2022/04/09 00:39:12;;;;;;;13.00;3.00;;;4.10;99.90;;;;;;4989367;28;20057;-74
2022/04/09 00:41:47;;;;;;;14.73;2.80;;;4.10;99.90;;;;;;4986501;28;20071;-74
2022/04/09 00:44:20;;;;;;;16.42;2.90;;;4.10;99.90;;;;;;4989348;28;20057;-74
2022/04/09 00:46:47;;;;;;;15.45;3.20;;;4.20;99.90;;;;;;4985032;28;20049;-74
2022/04/09 00:49:14;;;;;;;13.50;3.08;;;4.20;99.90;;;;;;4975597;28;20175;-74
2022/04/09 00:51:42;;;;;;;11.98;3.00;;;4.20;99.90;;;;;;4994624;28;20065;-74
2022/04/09 00:54:12;;;;;;;14.27;2.88;;;4.20;99.90;;;;;;4970948;28;20112;-74
2022/04/09 00:56:40;;;;;;;17.48;3.10;;;4.20;99.90;;;;;;4975362;28;20537;-74
2022/04/09 00:59:10;;;;;;;16.70;2.95;;;4.20;99.90;;;;;;4971531;28;20049;-74
2022/04/09 01:01:38;;;;;;;13.75;2.80;;;4.20;99.90;;;;;;4986375;28;20041;-74
2022/04/09 01:04:08;;;;;;;15.15;2.60;;;4.10;99.90;;;;;;4971992;28;20080;-74
2022/04/09 01:06:35;;;;;;;15.18;3.30;;;4.10;99.90;;;;;;4969206;28;20104;-74
2022/04/09 01:09:02;;;;;;;14.40;3.10;;;4.10;99.90;;;;;;4974642;28;20046;-74
2022/04/09 01:11:28;;;;;;;12.40;2.90;;;4.10;99.90;;;;;;4992265;28;20052;-74
2022/04/09 01:13:54;;;;;;;15.43;3.05;;;4.00;99.90;;;;;;4975945;28;20181;-74
2022/04/09 01:16:22;;;;;;;16.00;3.28;;;3.90;99.90;;;;;;4977079;28;20397;-74
2022/04/09 01:18:48;;;;;;;18.20;3.38;;;4.00;99.90;;;;;;4973984;28;20403;-74
2022/04/09 01:21:14;;;;;;;15.73;3.17;;;4.10;99.90;;;;;;4986943;28;20046;-74
2022/04/09 01:23:40;;;;;;;14.43;2.85;;;4.10;99.90;;;;;;4991503;28;20060;-74
2022/04/09 01:26:07;;;;;;;11.57;2.72;;;4.20;99.90;;;;;;4969892;28;20053;-74
2022/04/09 01:28:33;;;;;;;17.00;2.70;;;4.20;99.90;;;;;;4972445;28;20041;-74
2022/04/09 01:30:59;;;;;;;16.45;3.38;;;4.20;99.90;;;;;;4975020;28;21392;-74
2022/04/09 01:33:25;;;;;;;17.33;2.72;;;4.10;99.90;;;;;;4971903;28;20064;-74
2022/04/09 01:35:51;;;;;;;15.35;3.13;;;4.20;99.90;;;;;;4975628;28;20048;-74
2022/04/09 01:38:18;;;;;;;14.70;3.08;;;4.30;99.90;;;;;;4972781;28;20152;-74
2022/04/09 01:40:44;;;;;;;14.82;2.78;;;4.30;99.90;;;;;;4952163;28;20095;-74
2022/04/09 01:43:10;;;;;;;16.55;3.25;;;4.30;99.90;;;;;;4974793;28;20107;-74
2022/04/09 01:45:36;;;;;;;16.27;3.25;;;4.40;99.90;;;;;;4971703;28;20574;-74
2022/04/09 01:48:03;;;;;;;11.52;2.70;;;4.40;99.90;;;;;;4974483;28;20053;-74
2022/04/09 01:50:30;;;;;;;13.85;3.03;;;4.50;99.90;;;;;;4977581;28;20073;-74
2022/04/09 01:52:56;;;;;;;12.18;3.20;;;4.50;99.90;;;;;;4976507;28;20045;-74
2022/04/09 01:55:22;;;;;;;15.30;3.13;;;4.50;99.90;;;;;;4973001;28;20081;-74
2022/04/09 01:57:49;;;;;;;13.13;3.22;;;4.50;99.90;;;;;;4972910;28;20050;-75
2022/04/09 02:00:16;;;;;;;14.80;3.20;;;4.40;99.90;;;;;;4974526;28;20506;-74
2022/04/09 02:02:43;;;;;;;13.95;2.88;;;4.30;99.90;;;;;;4975419;28;20441;-74
2022/04/09 02:05:13;;;;;;;14.15;3.30;;;4.30;99.90;;;;;;4984020;28;20045;-74
2022/04/09 02:07:39;;;;;;;12.95;2.90;;;4.30;99.90;;;;;;4977476;28;21156;-75
2022/04/09 02:10:06;;;;;;;14.35;3.05;;;4.40;99.90;;;;;;4978725;28;20049;-74
2022/04/09 02:12:33;;;;;;;13.68;3.00;;;4.40;99.90;;;;;;4980921;28;20608;-74
2022/04/09 02:15:01;;;;;;;9.00;2.47;;;4.30;99.90;;;;;;4975873;28;20049;-74
2022/04/09 02:17:27;;;;;;;10.63;2.80;;;4.20;99.90;;;;;;4976168;28;21023;-75
2022/04/09 02:19:53;;;;;;;14.15;2.78;;;4.10;99.90;;;;;;4977364;28;20049;-74
2022/04/09 02:22:19;;;;;;;15.48;3.00;;;4.10;99.90;;;;;;4976913;28;20050;-74
2022/04/09 02:24:46;;;;;;;14.07;2.90;;;4.00;99.90;;;;;;4994943;28;20060;-74
2022/04/09 02:27:12;;;;;;;12.50;2.80;;;4.00;99.90;;;;;;4976016;28;20060;-74
2022/04/09 02:29:38;;;;;;;14.85;3.33;;;4.00;99.90;;;;;;4993576;28;20052;-74
2022/04/09 02:32:05;;;;;;;10.73;2.67;;;3.90;99.90;;;;;;4992222;28;20049;-74
2022/04/09 02:34:31;;;;;;;10.32;2.50;;;3.90;99.90;;;;;;4992133;28;20479;-74
2022/04/09 02:36:57;;;;;;;16.70;2.95;;;3.80;99.90;;;;;;4998456;28;20160;-74
2022/04/09 02:39:23;;;;;;;9.20;2.58;;;3.80;99.90;;;;;;4999969;28;20095;-74
2022/04/09 02:41:52;;;;;;;11.25;2.45;;;3.80;99.90;;;;;;4971621;28;20891;-74
2022/04/09 02:44:19;;;;;;;11.23;2.42;;;3.70;99.90;;;;;;4990702;28;20156;-74
2022/04/09 02:46:47;;;;;;;11.90;2.33;;;3.70;99.90;;;;;;4990998;28;20053;-74
2022/04/09 02:49:13;;;;;;;14.27;2.80;;;3.60;99.90;;;;;;4989836;28;20057;-74
2022/04/09 02:51:39;;;;;;;10.18;2.33;;;3.60;99.90;;;;;;4989096;28;20047;-74
2022/04/09 02:54:05;;;;;;;12.45;2.10;;;3.50;99.90;;;;;;4991528;28;20041;-74
2022/04/09 02:56:31;;;;;;;11.60;2.28;;;3.40;99.90;;;;;;4987559;28;20160;-74
2022/04/09 02:58:57;;;;;;;10.45;2.17;;;3.40;99.90;;;;;;4997233;28;20579;-74
2022/04/09 03:01:25;;;;;;;10.35;2.10;;;3.40;99.90;;;;;;4972819;28;20438;-74
2022/04/09 03:03:51;;;;;;;11.15;2.15;;;3.40;99.90;;;;;;4994564;28;20098;-74
2022/04/09 03:06:16;;;;;;;9.82;1.95;;;3.30;99.90;;;;;;4992700;28;20037;-74
2022/04/09 03:08:42;;;;;;;12.73;2.60;;;3.20;99.90;;;;;;4995192;28;20049;-74
2022/04/09 03:11:09;;;;;;;9.93;2.03;;;3.20;99.90;;;;;;4975754;28;20048;-74
2022/04/09 03:13:35;;;;;;;10.93;2.00;;;3.20;99.90;;;;;;4992900;28;20042;-74
2022/04/09 03:16:00;;;;;;;10.45;2.03;;;3.10;99.90;;;;;;5004293;28;20530;-74
2022/04/09 03:18:26;;;;;;;8.73;2.08;;;3.10;99.90;;;;;;4986644;28;20143;-74
2022/04/09 03:20:52;;;;;;;11.02;2.20;;;3.10;99.90;;;;;;4994329;28;20048;-75
2022/04/09 03:23:18;;;;;;;9.70;2.10;;;3.10;99.90;;;;;;4975557;28;20458;-74
2022/04/09 03:25:44;;;;;;;10.73;2.20;;;3.20;99.90;;;;;;4991435;28;20349;-74
2022/04/09 03:28:10;;;;;;;8.10;1.90;;;3.30;99.90;;;;;;4976952;28;20076;-74
2022/04/09 03:30:36;;;;;;;10.40;2.35;;;3.30;99.90;;;;;;4978508;28;22175;-74
2022/04/09 03:33:02;;;;;;;9.40;2.00;;;3.40;99.90;;;;;;4995085;28;20049;-74
2022/04/09 03:35:27;;;;;;;10.27;2.22;;;3.40;99.90;;;;;;4982819;28;20049;-74
2022/04/09 03:37:54;;;;;;;7.93;2.10;;;3.40;99.90;;;;;;4998168;28;20045;-74
2022/04/09 03:40:19;;;;;;;11.02;2.38;;;3.40;99.90;;;;;;4986198;28;20049;-74
2022/04/09 03:42:45;;;;;;;10.10;2.08;;;3.40;99.90;;;;;;5000675;28;20059;-74
2022/04/09 03:45:11;;;;;;;7.88;2.08;;;3.50;99.90;;;;;;4959534;28;20049;-74
2022/04/09 03:47:37;;;;;;;9.45;1.88;;;3.50;99.90;;;;;;4991073;28;20045;-75
2022/04/09 03:50:06;;;;;;;9.45;2.03;;;3.50;99.90;;;;;;4972490;28;20724;-75
2022/04/09 03:52:32;;;;;;;10.43;2.13;;;3.60;99.90;;;;;;4954605;28;20057;-74
2022/04/09 03:54:58;;;;;;;9.60;1.90;;;3.60;99.90;;;;;;4992637;28;20260;-74
2022/04/09 03:57:24;;;;;;;11.48;1.95;;;3.60;99.90;;;;;;4995570;28;20563;-75
2022/04/09 03:59:54;;;;;;;8.00;1.70;;;3.70;99.90;;;;;;4973279;28;20412;-75
2022/04/09 04:02:19;;;;;;;8.00;1.70;;;3.60;99.90;;;;;;4989015;28;20071;-75
2022/04/09 04:04:45;;;;;;;13.60;1.77;;;3.60;99.90;;;;;;4989187;28;20051;-74
2022/04/09 04:07:13;;;;;;;9.32;1.75;;;3.60;99.90;;;;;;4995537;28;20855;-74
2022/04/09 04:09:38;;;;;;;10.77;2.15;;;3.60;99.90;;;;;;5001448;28;20057;-74
2022/04/09 04:12:05;;;;;;;9.85;1.60;;;3.60;99.90;;;;;;4998914;28;20077;-74
2022/04/09 04:14:31;;;;;;;8.80;1.70;;;3.50;99.90;;;;;;4955206;28;20073;-75
2022/04/09 04:16:57;;;;;;;7.95;1.60;;;3.60;99.90;;;;;;4974792;28;20686;-75
2022/04/09 04:19:23;;;;;;;9.77;1.90;;;3.60;99.90;;;;;;4992003;28;20521;-75
2022/04/09 04:21:48;;;;;;;9.02;2.05;;;3.60;99.90;;;;;;4991772;28;20638;-75
2022/04/09 04:24:14;;;;;;;7.75;1.75;;;3.60;99.90;;;;;;4989683;28;20057;-74
2022/04/09 04:26:40;;;;;;;9.65;2.28;;;3.60;99.90;;;;;;5007966;28;20086;-74
2022/04/09 04:29:06;;;;;;;9.57;2.33;;;3.60;99.90;;;;;;5001441;28;20508;-75
2022/04/09 04:31:32;;;;;;;10.93;2.08;;;3.60;99.90;;;;;;4967476;28;20055;-74
2022/04/09 04:33:58;;;;;;;12.82;2.50;;;3.60;99.90;;;;;;4989162;28;20484;-75
2022/04/09 04:36:24;;;;;;;11.57;2.40;;;3.70;99.90;;;;;;4974915;28;20506;-75
2022/04/09 04:38:50;;;;;;;8.32;1.83;;;3.70;99.90;;;;;;4969439;28;20495;-75
2022/04/09 04:41:16;;;;;;;8.23;2.05;;;3.80;99.90;;;;;;4985056;28;20052;-75
2022/04/09 04:43:44;;;;;;;8.15;1.85;;;3.80;99.90;;;;;;4994342;28;20041;-74
2022/04/09 04:46:10;;;;;;;10.75;1.95;;;3.70;99.90;;;;;;4990603;28;20061;-75
2022/04/09 04:48:36;;;;;;;10.40;1.77;;;3.70;99.90;;;;;;4971553;28;20135;-74
2022/04/09 04:51:02;;;;;;;8.90;1.73;;;3.70;99.90;;;;;;5002170;28;20049;-75
2022/04/09 04:53:28;;;;;;;9.30;2.00;;;3.70;99.90;;;;;;4997248;28;20037;-75
2022/04/09 04:55:54;;;;;;;10.20;2.10;;;3.70;99.90;;;;;;4973578;28;20155;-74
2022/04/09 04:58:20;;;;;;;10.88;2.28;;;3.60;99.90;;;;;;4972532;28;20464;-75
2022/04/09 05:00:46;;;;;;;13.10;2.00;;;3.70;99.90;;;;;;4990683;28;20223;-74
2022/04/09 05:03:12;;;;;;;10.45;2.20;;;3.70;99.90;;;;;;4998259;28;20559;-75
2022/04/09 05:05:38;;;;;;;10.85;2.10;;;3.70;99.90;;;;;;4992134;28;20041;-75
2022/04/09 05:08:04;;;;;;;13.85;2.50;;;3.70;99.90;;;;;;4976838;28;20721;-74
2022/04/09 05:10:30;;;;;;;8.35;2.33;;;3.90;99.90;;;;;;4996586;28;20088;-75
2022/04/09 05:12:58;;;;;;;10.75;2.03;;;4.00;99.90;;;;;;4976090;28;20156;-75
2022/04/09 05:15:24;;;;;;;10.95;2.13;;;4.20;99.90;;;;;;4990295;28;20057;-74
2022/04/09 05:17:50;;;;;;;14.43;2.28;;;4.40;99.90;;;;;;4994182;28;20049;-75
2022/04/09 05:20:16;;;;;;;10.52;2.22;;;4.60;99.90;;;;;;4993721;28;20092;-75
2022/04/09 05:22:48;;;;;;;11.27;2.03;;;4.90;99.90;;;;;;4980244;28;20078;-75
2022/04/09 05:25:19;;;;;;;11.30;2.30;;;4.80;99.90;;;;;;4991384;28;20918;-75
2022/04/09 05:27:46;;;;;;;7.68;1.92;;;4.60;99.90;;;;;;4993131;28;20049;-75
2022/04/09 05:30:12;;;;;;;10.10;1.92;;;4.60;99.90;;;;;;5009505;28;20046;-75
2022/04/09 05:32:39;;;;;;;11.50;2.10;;;4.70;99.90;;;;;;5008181;28;20575;-75
2022/04/09 05:35:07;;;;;;;10.70;2.20;;;4.70;99.90;;;;;;4995969;28;20060;-75
2022/04/09 05:37:33;;;;;;;10.13;2.10;;;4.70;99.90;;;;;;5010333;28;20085;-74
2022/04/09 05:39:58;;;;;;;15.95;2.58;;;4.70;99.90;;;;;;5010041;28;20148;-75
2022/04/09 05:42:25;;;;;;;9.27;2.00;;;4.70;99.90;;;;;;4995460;28;20076;-74
2022/04/09 05:44:55;;;;;;;8.15;2.10;;;4.70;99.90;;;;;;5010038;28;20044;-75
2022/04/09 05:47:21;;;;;;;11.30;2.30;;;4.60;99.90;;;;;;4989065;28;20054;-75
2022/04/09 05:49:47;;;;;;;11.50;2.22;;;4.60;99.90;;;;;;4976860;28;20068;-75
2022/04/09 05:52:13;;;;;;;10.88;1.80;;;4.50;99.90;;;;;;5007408;28;20048;-77
2022/04/09 05:54:39;;;;;;;9.27;2.05;;;4.50;99.90;;;;;;5007241;28;20045;-75
2022/04/09 05:57:06;;;;;;;9.75;1.80;;;4.70;99.90;;;;;;5010843;28;20116;-75
2022/04/09 05:59:32;;;;;;;10.57;1.98;;;5.00;99.90;;;;;;4988048;28;20884;-75
2022/04/09 06:01:58;;;;;;;9.02;1.90;;;5.10;99.90;;;;;;4988021;28;20144;-74
2022/04/09 06:04:24;;;;;;;7.50;1.88;;;5.30;99.90;;;;;;5007108;28;20118;-74
2022/04/09 06:06:50;;;;;;;8.85;1.85;;;5.40;99.90;;;;;;5005789;28;20046;-75
2022/04/09 06:09:16;;;;;;;12.13;2.20;;;5.60;99.90;;;;;;4987761;28;20759;-74
2022/04/09 06:11:42;;;;;;;9.60;1.70;;;5.80;99.90;;;;;;5007142;28;20045;-75
2022/04/09 06:14:11;;;;;;;9.23;1.67;;;5.90;99.90;;;;;;5011842;28;20056;-75
2022/04/09 06:16:38;;;;;;;9.32;1.80;;;6.00;99.90;;;;;;5007420;28;20079;-75
2022/04/09 06:19:07;;;;;;;8.65;1.90;;;6.10;99.90;;;;;;5009005;28;20042;-75
2022/04/09 06:21:34;;;;;;;9.20;1.58;;;6.30;99.90;;;;;;4991860;28;20041;-75
2022/04/09 06:24:01;;;;;;;8.38;1.92;;;6.50;99.90;;;;;;4989102;28;20065;-75
2022/04/09 06:26:27;;;;;;;8.05;1.65;;;6.30;99.90;;;;;;5005729;28;20781;-75
2022/04/09 06:28:54;;;;;;;10.25;2.35;;;6.30;99.90;;;;;;4983700;28;20051;-73
2022/04/09 06:31:20;;;;;;;13.48;1.85;;;6.20;99.90;;;;;;4985282;28;20112;-74
2022/04/09 06:33:45;;;;;;;12.85;2.00;;;6.20;99.90;;;;;;4966754;28;20155;-75
2022/04/09 06:36:11;;;;;;;12.30;2.05;;;6.10;99.90;;;;;;4985264;28;20046;-74
2022/04/09 06:38:37;;;;;;;14.65;2.08;;;6.00;99.90;;;;;;4991715;28;20552;-75
2022/04/09 06:41:03;;;;;;;10.70;2.30;;;5.90;99.90;;;;;;4984811;28;20072;-75
2022/04/09 06:43:30;;;;;;;14.68;2.25;;;6.10;99.90;;;;;;4988188;28;20052;-75
2022/04/09 06:45:56;;;;;;;14.32;2.22;;;6.50;99.90;;;;;;4990426;28;20125;-75
2022/04/09 06:48:22;;;;;;;10.95;1.95;;;6.80;99.90;;;;;;4985611;28;20372;-76
2022/04/09 06:50:48;;;;;;;14.18;2.10;;;6.80;99.90;;;;;;4990411;28;20037;-74
2022/04/09 06:53:14;;;;;;;11.63;2.20;;;6.90;99.90;;;;;;4991129;28;20045;-75
2022/04/09 06:55:41;;;;;;;12.75;2.22;;;6.90;99.90;;;;;;4984893;28;20148;-75
2022/04/09 06:58:07;;;;;;;11.40;2.13;;;6.90;99.90;;;;;;4986745;28;20053;-75
2022/04/09 07:00:33;;;;;;;12.95;2.25;;;7.00;99.90;;;;;;4992392;28;20279;-75
2022/04/09 07:03:02;;;;;;;34.63;3.35;;;6.80;99.90;;;;;;4989026;28;20124;-74
2022/04/09 07:05:28;;;;;;;12.90;2.20;;;6.70;99.90;;;;;;4988883;28;20065;-75
2022/04/09 07:07:54;;;;;;;9.55;1.85;;;7.00;99.90;;;;;;4990496;28;20504;-74
2022/04/09 07:10:20;;;;;;;12.32;2.30;;;7.20;99.90;;;;;;4985944;28;20045;-74
2022/04/09 07:12:46;;;;;;;14.30;2.22;;;7.40;99.90;;;;;;4987711;28;20092;-74
2022/04/09 07:15:12;;;;;;;9.38;1.88;;;7.50;99.90;;;;;;4988990;28;20049;-75
2022/04/09 07:17:41;;;;;;;5.90;1.77;;;7.70;99.90;;;;;;4988044;28;20049;-73
2022/04/09 07:20:08;;;;;;;14.82;2.20;;;7.80;99.90;;;;;;4987297;28;20124;-75
2022/04/09 07:22:35;;;;;;;10.70;2.03;;;7.90;99.90;;;;;;4972668;28;21201;-74
2022/04/09 07:25:01;;;;;;;9.68;2.10;;;8.00;99.90;;;;;;4983335;28;20057;-75
2022/04/09 07:27:38;;;;;;;7.85;1.75;;;8.10;99.90;;;;;;4989085;28;20050;-74
2022/04/09 07:30:06;;;;;;;9.73;1.80;;;8.40;99.90;;;;;;5002805;28;20053;-74
2022/04/09 07:32:32;;;;;;;10.65;1.63;;;8.40;99.90;;;;;;4985960;28;20053;-74
2022/04/09 07:34:59;;;;;;;10.27;1.75;;;8.60;99.90;;;;;;5009474;28;22485;-75
2022/04/09 07:37:25;;;;;;;10.35;2.03;;;8.40;99.90;;;;;;4981080;28;21108;-75
2022/04/09 07:39:51;;;;;;;12.90;2.10;;;8.30;99.90;;;;;;4985750;28;20045;-75
2022/04/09 07:42:18;;;;;;;10.13;1.90;;;8.20;99.90;;;;;;4983136;28;20202;-76
2022/04/09 07:44:44;;;;;;;12.57;1.90;;;8.00;99.90;;;;;;4988220;28;20082;-75
2022/04/09 07:47:10;;;;;;;11.63;2.20;;;8.00;99.90;;;;;;4991169;28;20626;-74
2022/04/09 07:49:35;;;;;;;10.73;1.80;;;8.20;99.90;;;;;;4991814;28;20041;-75
2022/04/09 07:52:01;;;;;;;11.00;1.77;;;8.00;99.90;;;;;;4987067;28;20052;-74
2022/04/09 07:54:29;;;;;;;13.20;2.15;;;7.80;99.90;;;;;;4988148;28;20513;-74
2022/04/09 07:56:56;;;;;;;14.15;2.03;;;7.60;99.90;;;;;;4987666;28;20809;-75
2022/04/09 07:59:27;;;;;;;9.13;1.73;;;8.10;99.90;;;;;;4986235;28;20062;-74
2022/04/09 08:01:53;;;;;;;10.07;2.35;;;8.40;99.90;;;;;;4983491;28;20049;-75
2022/04/09 08:04:19;;;;;;;12.20;2.05;;;8.60;99.90;;;;;;4979033;28;20038;-74
2022/04/09 08:06:45;;;;;;;12.13;2.72;;;8.60;99.90;;;;;;4980663;28;20504;-75
2022/04/09 08:09:10;;;;;;;11.32;2.03;;;8.70;99.90;;;;;;4974833;28;20131;-75
2022/04/09 08:11:36;;;;;;;12.00;1.90;;;8.70;99.90;;;;;;4978509;28;20038;-75
2022/04/09 08:14:02;;;;;;;14.57;2.55;;;9.20;99.90;;;;;;4954984;28;20636;-75
2022/04/09 08:16:28;;;;;;;16.63;2.53;;;9.20;99.90;;;;;;4965350;28;20054;-75
2022/04/09 08:18:54;;;;;;;12.20;2.40;;;9.40;99.90;;;;;;4970040;28;20603;-75
2022/04/09 08:21:20;;;;;;;11.93;2.40;;;9.30;99.90;;;;;;4982246;28;20054;-75
2022/04/09 08:23:47;;;;;;;10.57;1.83;;;9.00;99.90;;;;;;4981458;28;20050;-75
2022/04/09 08:26:14;;;;;;;10.55;1.92;;;8.70;99.90;;;;;;4982616;28;20050;-74
2022/04/09 08:28:40;;;;;;;8.27;1.70;;;8.30;99.90;;;;;;4984238;28;20041;-74
2022/04/09 08:31:06;;;;;;;8.98;1.92;;;8.20;99.90;;;;;;4983233;28;20283;-75
2022/04/09 08:33:32;;;;;;;10.32;2.00;;;8.10;99.90;;;;;;4980523;28;20208;-75
2022/04/09 08:36:00;;;;;;;10.32;1.65;;;8.10;99.90;;;;;;4983332;28;20042;-75
2022/04/09 08:38:25;;;;;;;7.65;1.40;;;8.30;99.90;;;;;;4990828;28;20497;-75
2022/04/09 08:40:51;;;;;;;10.00;2.03;;;8.60;99.90;;;;;;4984375;28;20043;-75
2022/04/09 08:43:18;;;;;;;8.43;1.60;;;9.00;99.90;;;;;;4986290;28;20041;-75
2022/04/09 08:45:43;;;;;;;9.60;1.50;;;9.00;99.90;;;;;;4985304;28;20093;-75
2022/04/09 08:48:10;;;;;;;8.13;1.40;;;8.90;99.90;;;;;;4986793;28;20144;-75
2022/04/09 08:50:36;;;;;;;9.00;1.90;;;8.70;99.90;;;;;;4985988;28;20124;-75
2022/04/09 08:53:07;;;;;;;14.25;2.03;;;8.90;99.90;;;;;;4990721;28;20116;-75
2022/04/09 08:55:36;;;;;;;8.80;1.52;;;9.30;99.90;;;;;;4983932;28;20058;-74
2022/04/09 08:58:04;;;;;;;8.60;1.70;;;9.70;99.90;;;;;;4988810;28;20149;-75
2022/04/09 09:00:30;;;;;;;10.15;1.70;;;9.80;99.90;;;;;;4979325;28;20061;-75
2022/04/09 09:03:00;;;;;;;7.78;1.48;;;9.60;99.90;;;;;;4967431;28;20046;-75
2022/04/09 09:05:52;;;;;;;9.63;1.58;;;9.70;99.90;;;;;;4967793;28;20097;-74
2022/04/09 09:08:38;;;;;;;9.98;1.83;;;9.70;99.90;;;;;;4963966;28;20151;-75
2022/04/09 09:11:05;;;;;;;8.48;1.30;;;9.70;99.90;;;;;;4962458;28;20153;-75
2022/04/09 09:13:48;;;;;;;9.13;1.55;;;9.60;99.90;;;;;;4979548;28;20045;-75
2022/04/09 09:16:23;;;;;;;9.18;1.42;;;9.90;99.90;;;;;;4958291;28;20722;-74
2022/04/09 09:18:54;;;;;;;7.20;1.67;;;10.00;99.90;;;;;;4985465;28;20057;-75
2022/04/09 09:21:25;;;;;;;6.38;1.30;;;10.30;99.90;;;;;;4968170;28;20460;-75
2022/04/09 09:24:16;;;;;;;8.63;1.83;;;10.10;99.90;;;;;;4975185;28;20065;-75
2022/04/09 09:26:44;;;;;;;9.10;1.40;;;9.70;99.90;;;;;;4982024;28;20128;-74
2022/04/09 09:29:22;;;;;;;7.28;1.70;;;9.30;99.90;;;;;;4968848;28;20111;-74
2022/04/09 09:31:50;;;;;;;7.95;1.50;;;9.10;99.90;;;;;;4966968;28;20053;-74
2022/04/09 09:34:21;;;;;;;10.43;1.77;;;9.40;99.90;;;;;;4983649;28;20045;-75
2022/04/09 09:36:48;;;;;;;6.70;1.30;;;9.60;99.90;;;;;;4983355;28;20050;-75
2022/04/09 09:39:16;;;;;;;9.57;2.67;;;10.30;99.90;;;;;;4983292;28;20037;-75
2022/04/09 09:41:56;;;;;;;7.22;1.38;;;10.50;99.90;;;;;;4983113;28;20099;-74
2022/04/09 09:44:24;;;;;;;6.47;1.20;;;10.30;99.90;;;;;;4962525;28;20183;-76
2022/04/09 09:46:51;;;;;;;7.90;1.38;;;10.00;99.90;;;;;;4966999;28;20049;-75
2022/04/09 09:49:18;;;;;;;6.32;1.30;;;10.60;99.90;;;;;;4974365;28;20060;-74
2022/04/09 09:52:01;;;;;;;7.47;1.10;;;10.90;99.90;;;;;;4989648;28;20041;-75
2022/04/09 09:54:27;;;;;;;9.52;1.30;;;10.80;99.90;;;;;;4985819;28;20054;-75
2022/04/09 09:56:55;;;;;;;8.45;1.05;;;10.90;99.90;;;;;;4992313;28;20083;-76
2022/04/09 09:59:22;;;;;;;6.05;1.13;;;11.10;99.90;;;;;;4996356;28;20041;-74
2022/04/09 10:01:48;;;;;;;8.25;1.40;;;11.20;99.90;;;;;;4998083;28;20103;-75
2022/04/09 10:04:14;;;;;;;7.53;1.40;;;11.00;99.90;;;;;;4973282;28;20605;-75
2022/04/09 10:06:43;;;;;;;7.85;1.20;;;11.20;99.90;;;;;;4995451;28;20041;-74
2022/04/09 10:09:12;;;;;;;7.68;1.63;;;11.30;99.90;;;;;;4994210;28;20038;-75
2022/04/09 10:11:49;;;;;;;6.85;1.23;;;11.10;99.90;;;;;;4994474;28;20116;-75
2022/04/09 10:14:20;;;;;;;6.32;1.25;;;11.00;99.90;;;;;;4984527;28;20049;-74
2022/04/09 10:16:48;;;;;;;9.65;1.55;;;11.10;99.90;;;;;;4993159;28;20059;-75
2022/04/09 10:19:17;;;;;;;15.35;1.88;;;10.80;99.90;;;;;;5003379;28;20110;-73
2022/04/09 10:21:46;;;;;;;6.93;1.35;;;11.60;99.90;;;;;;4998853;28;20044;-75
2022/04/09 10:24:30;;;;;;;11.07;1.88;;;11.20;99.90;;;;;;4994533;28;20061;-75
2022/04/09 10:26:58;;;;;;;8.80;1.60;;;11.00;99.90;;;;;;5002086;28;20716;-75
2022/04/09 10:29:24;;;;;;;10.25;2.03;;;10.30;99.90;;;;;;4998066;28;21116;-75
2022/04/09 10:31:51;;;;;;;6.40;1.20;;;10.00;99.90;;;;;;4997112;28;20052;-72
2022/04/09 10:34:18;;;;;;;11.43;1.60;;;9.70;99.90;;;;;;4991349;28;20492;-73
2022/04/09 10:36:47;;;;;;;10.90;1.70;;;9.60;99.90;;;;;;4996127;28;20066;-76
2022/04/09 10:39:26;;;;;;;6.82;1.05;;;9.50;99.90;;;;;;4993017;28;20114;-75
2022/04/09 10:41:56;;;;;;;7.22;1.33;;;9.50;99.90;;;;;;4994195;28;20785;-74
2022/04/09 10:44:43;;;;;;;11.45;1.67;;;9.80;99.90;;;;;;4970241;28;20049;-74
2022/04/09 10:47:12;;;;;;;8.25;1.27;;;10.40;99.90;;;;;;4991646;28;20053;-74
2022/04/09 10:49:38;;;;;;;9.38;1.23;;;10.80;99.90;;;;;;4969170;28;20372;-75
2022/04/09 10:52:05;;;;;;;6.03;1.10;;;11.20;99.90;;;;;;4997352;28;20078;-74
2022/04/09 10:54:33;;;;;;;5.53;1.27;;;10.60;99.90;;;;;;4989551;28;20832;-74
2022/04/09 10:57:24;;;;;;;6.55;1.17;;;9.40;99.90;;;;;;4976083;28;20122;-74
2022/04/09 10:59:59;;;;;;;13.13;1.70;;;8.40;99.90;;;;;;4992772;28;20048;-74
2022/04/09 11:02:26;;;;;;;9.23;1.60;;;7.90;99.90;;;;;;4961634;28;20060;-77
2022/04/09 11:04:52;;;;;;;6.97;1.20;;;7.20;99.90;;;;;;4979190;28;20057;-75
2022/04/09 11:07:23;;;;;;;8.25;1.30;;;7.00;99.90;;;;;;5000251;28;20079;-75
2022/04/09 11:10:04;;;;;;;8.10;1.40;;;7.10;99.90;;;;;;4964910;28;20309;-74
2022/04/09 11:12:39;;;;;;;7.45;1.65;;;7.40;99.90;;;;;;4976150;28;20049;-74
2022/04/09 11:15:12;;;;;;;9.77;1.80;;;7.40;99.90;;;;;;4999927;28;20477;-75
2022/04/09 11:17:47;;;;;;;;;;;7.40;99.90;;;;;;4995076;28;20106;-75
2022/04/09 11:20:18;;;;;;;6.55;0.95;;;7.30;99.90;;;;;;4958849;28;19948;-75
2022/04/09 11:22:45;;;;;;;2.50;0.63;;;6.80;99.90;;;;;;4990737;28;20665;-74
2022/04/09 11:25:25;;;;;;;3.65;0.80;;;6.60;99.90;;;;;;4957720;28;20053;-74
2022/04/09 11:27:53;;;;;;;2.25;0.50;;;6.50;99.90;;;;;;4983944;28;20050;-75
2022/04/09 11:30:20;;;;;;;2.35;0.50;;;6.30;99.90;;;;;;4978887;28;20971;-75
2022/04/09 11:32:46;;;;;;;3.97;0.80;;;6.10;99.90;;;;;;4987205;28;21212;-74
2022/04/09 11:35:12;;;;;;;5.80;1.08;;;6.30;99.90;;;;;;4983700;28;20551;-75
2022/04/09 11:37:48;;;;;;;2.88;0.65;;;6.50;99.90;;;;;;4982906;28;20064;-74
2022/04/09 11:40:15;;;;;;;4.07;0.80;;;6.90;99.90;;;;;;4986456;28;20061;-74
2022/04/09 11:42:49;;;;;;;5.55;1.10;;;7.00;99.90;;;;;;4983755;28;20119;-74
2022/04/09 11:45:28;;;;;;;7.35;1.15;;;7.60;99.90;;;;;;4989698;28;20049;-74
2022/04/09 11:47:59;;;;;;;4.72;1.10;;;8.10;99.90;;;;;;4987463;28;20064;-74
2022/04/09 11:50:30;;;;;;;7.32;1.10;;;8.00;99.90;;;;;;4989030;28;20053;-74
2022/04/09 11:53:07;;;;;;;4.57;1.02;;;8.00;99.90;;;;;;4989006;28;20136;-74
2022/04/09 11:55:33;;;;;;;7.10;1.45;;;8.50;99.90;;;;;;5003310;28;20045;-75
2022/04/09 11:57:59;;;;;;;7.40;1.40;;;8.60;99.90;;;;;;4986924;28;20046;-75
2022/04/09 12:00:27;;;;;;;7.55;1.40;;;8.60;99.90;;;;;;4988119;28;20488;-74
2022/04/09 12:02:54;;;;;;;8.95;1.38;;;8.80;99.90;;;;;;4966195;28;20061;-74
2022/04/09 12:05:19;;;;;;;8.27;1.65;;;8.70;99.90;;;;;;4990295;28;20053;-76
2022/04/09 12:07:47;;;;;;;8.38;1.33;;;8.90;99.90;;;;;;4986398;28;20060;-75
2022/04/09 12:10:30;;;;;;;6.35;1.40;;;9.30;99.90;;;;;;4991335;28;20057;-75
2022/04/09 12:13:00;;;;;;;10.57;1.40;;;9.80;99.90;;;;;;4988726;28;20053;-75
2022/04/09 12:15:30;;;;;;;5.30;1.08;;;9.20;99.90;;;;;;4991982;28;20061;-74
2022/04/09 12:17:56;;;;;;;5.65;0.98;;;8.80;99.90;;;;;;4992300;28;20061;-74
2022/04/09 12:20:31;;;;;;;5.35;1.00;;;8.60;99.90;;;;;;4988956;28;20047;-74
2022/04/09 12:22:58;;;;;;;6.13;1.08;;;8.50;99.90;;;;;;4968529;28;20049;-75
2022/04/09 12:25:42;;;;;;;4.72;0.93;;;8.80;99.90;;;;;;5007885;28;20057;-76
2022/04/09 12:28:24;;;;;;;;;;;9.00;99.90;;;;;;5007075;28;20109;-76
2022/04/09 12:30:52;;;;;;;7.57;1.02;;;9.20;99.90;;;;;;4992683;28;20745;-74
2022/04/09 12:33:20;;;;;;;5.90;1.25;;;9.30;99.90;;;;;;5005992;28;20365;-74
2022/04/09 12:35:46;;;;;;;5.95;1.10;;;9.40;99.90;;;;;;5007441;28;20080;-74
2022/04/09 12:38:37;;;;;;;5.82;0.98;;;9.30;99.90;;;;;;5006179;28;20148;-74
2022/04/09 12:41:05;;;;;;;4.63;0.90;;;9.30;99.90;;;;;;4988457;28;20131;-74
2022/04/09 12:43:34;;;;;;;4.57;0.85;;;9.40;99.90;;;;;;5011890;28;20049;-75
2022/04/09 12:46:09;;;;;;;3.00;0.68;;;9.10;99.90;;;;;;4988592;28;20049;-74
2022/04/09 12:48:44;;;;;;;3.35;0.95;;;9.10;99.90;;;;;;4988497;28;20089;-74
2022/04/09 12:51:13;;;;;;;6.60;1.58;;;9.20;99.90;;;;;;5007827;28;20071;-75
2022/04/09 12:53:40;;;;;;;7.43;1.45;;;9.40;99.90;;;;;;5005215;28;20067;-74